Clements, Maryland
Current Conditions -  °F | °C
As of 2:37 AM on Saturday 01 Nov 2014 (Local Time) from K2W6 Reporting Station
Overcast Overcast  
Wind Chill: 44°   Ceiling: 4100
Heat Index: 46°   Visibility: 10mi
Dew Point: 37°   Wind: 5mph
Humidity: 71%   Direction: 350°N
Pressure: 29.76"   Gusts: NA
Location:  38.33°N, 76.73°W
Report Text: K2W6 010637Z AUTO 35004KT 10SM OVC041 08/03 A2976 RMK AO1
Loading
Personal Weather Stations






























Interactive Weather Map
Tropical Storm Tracking
New forecast layout! Learn more

10-Day Weather Forecast

Advertisements
Track Severe Weather on mobile